createdAt,value
2022-10-31T00:01:44.012Z,24.52
2022-10-31T00:04:13.494Z,23.22
2022-10-31T00:06:42.966Z,27.02
2022-10-31T00:09:13.796Z,26.70
2022-10-31T00:11:43.299Z,19.12
2022-10-31T00:14:13.527Z,24.23
2022-10-31T00:16:43.370Z,27.42
2022-10-31T00:19:12.906Z,24.77
2022-10-31T00:21:42.400Z,30.03
2022-10-31T00:24:13.463Z,28.50
2022-10-31T00:26:42.895Z,25.52
2022-10-31T00:29:14.516Z,24.90
2022-10-31T00:31:43.952Z,26.90
2022-10-31T00:34:13.375Z,27.15
2022-10-31T00:36:42.844Z,20.60
2022-10-31T00:39:13.972Z,24.05
2022-10-31T00:41:43.430Z,23.42
2022-10-31T00:44:14.570Z,23.77
2022-10-31T00:46:44.302Z,30.23
2022-10-31T00:49:13.729Z,27.52
2022-10-31T00:51:43.371Z,22.22
2022-10-31T00:54:12.921Z,37.98
2022-10-31T00:56:42.428Z,24.20
2022-10-31T00:59:11.859Z,19.48
2022-10-31T01:01:41.655Z,27.82
2022-10-31T01:04:11.421Z,21.90
2022-10-31T01:06:40.987Z,25.73
2022-10-31T01:09:11.496Z,25.27
2022-10-31T01:11:41.020Z,29.95
2022-10-31T01:14:11.752Z,26.60
2022-10-31T01:16:41.252Z,23.55
2022-10-31T01:19:10.668Z,23.80
2022-10-31T01:21:40.109Z,23.57
2022-10-31T01:24:11.121Z,22.48
2022-10-31T01:26:41.708Z,21.52
2022-10-31T01:29:12.040Z,26.80
2022-10-31T01:31:42.202Z,28.55
2022-10-31T01:34:14.842Z,25.02
2022-10-31T01:36:46.480Z,23.02
2022-10-31T01:39:17.523Z,28.10
2022-10-31T01:41:50.024Z,25.40
2022-10-31T01:44:23.055Z,25.45
2022-10-31T01:47:04.717Z,29.40
2022-10-31T01:49:39.967Z,28.42
2022-10-31T01:52:33.614Z,22.30
2022-10-31T01:55:09.191Z,24.32
2022-10-31T01:57:41.913Z,24.13
2022-10-31T02:00:13.430Z,24.00
2022-10-31T02:02:43.756Z,23.40
2022-10-31T02:05:17.155Z,22.77
2022-10-31T02:08:06.417Z,19.85
2022-10-31T02:10:38.540Z,22.30
2022-10-31T02:13:10.939Z,33.73
2022-10-31T02:15:44.804Z,24.40
2022-10-31T02:18:14.444Z,23.18
2022-10-31T02:21:17.830Z,22.25
2022-10-31T02:24:08.615Z,27.05
2022-10-31T02:26:53.370Z,26.25
2022-10-31T02:29:25.871Z,28.35
2022-10-31T02:32:04.590Z,17.82
2022-10-31T02:34:43.141Z,21.62
2022-10-31T02:37:16.128Z,26.00
2022-10-31T02:39:57.312Z,26.17
2022-10-31T02:42:43.394Z,31.77
2022-10-31T02:45:15.899Z,28.55
2022-10-31T02:47:49.122Z,24.75
2022-10-31T02:50:30.175Z,26.45
2022-10-31T02:52:59.660Z,27.48
2022-10-31T02:55:32.158Z,29.05
2022-10-31T02:58:15.059Z,23.90
2022-10-31T03:01:04.065Z,24.77
2022-10-31T03:04:10.743Z,22.33
2022-10-31T03:07:07.410Z,22.67
2022-10-31T03:09:39.985Z,23.47
2022-10-31T03:12:18.097Z,24.60
2022-10-31T03:14:56.325Z,27.22
2022-10-31T03:17:31.821Z,27.20
2022-10-31T03:20:03.035Z,33.83
2022-10-31T03:22:35.423Z,27.13
2022-10-31T03:25:42.857Z,27.95
2022-10-31T03:28:15.793Z,30.97
2022-10-31T03:30:47.243Z,25.43
2022-10-31T03:33:19.779Z,31.10
2022-10-31T03:35:52.390Z,29.82
2022-10-31T03:38:24.479Z,31.15
2022-10-31T03:40:57.553Z,24.72
2022-10-31T03:43:31.144Z,32.95
2022-10-31T03:46:02.199Z,31.42
2022-10-31T03:48:33.418Z,27.97
2022-10-31T03:51:11.523Z,29.18
2022-10-31T03:53:56.064Z,30.25
2022-10-31T03:56:37.536Z,23.80
2022-10-31T03:59:15.835Z,27.10
2022-10-31T04:01:48.526Z,26.85
2022-10-31T04:04:22.130Z,22.77
2022-10-31T04:06:54.812Z,28.00
2022-10-31T04:09:27.183Z,28.60
2022-10-31T04:12:00.752Z,24.30
2022-10-31T04:14:34.968Z,26.80
2022-10-31T04:17:07.730Z,30.17
2022-10-31T04:19:39.020Z,27.60
2022-10-31T04:22:10.145Z,30.65
2022-10-31T04:24:42.767Z,28.23
2022-10-31T04:27:13.498Z,23.60
2022-10-31T04:29:45.531Z,28.30
2022-10-31T04:34:44.023Z,27.42
2022-10-31T04:37:13.526Z,25.05
2022-10-31T04:39:43.050Z,29.13
2022-10-31T04:42:34.982Z,32.28
2022-10-31T04:45:07.177Z,20.20
2022-10-31T04:47:38.712Z,29.02
2022-10-31T04:50:08.471Z,30.27
2022-10-31T04:52:44.246Z,29.85
2022-10-31T04:55:17.246Z,28.47
2022-10-31T04:57:51.442Z,31.82
2022-10-31T05:00:25.638Z,28.70
2022-10-31T05:02:59.332Z,38.40
2022-10-31T05:05:32.908Z,32.30
2022-10-31T05:08:05.260Z,34.40
2022-10-31T05:10:35.893Z,29.67
2022-10-31T05:13:07.467Z,29.63
2022-10-31T05:15:54.593Z,30.05
2022-10-31T05:18:28.331Z,30.75
2022-10-31T05:21:11.357Z,28.73
2022-10-31T05:23:45.914Z,31.52
2022-10-31T05:26:13.772Z,22.85
2022-10-31T05:28:43.401Z,27.13
2022-10-31T05:31:14.161Z,25.57
2022-10-31T05:33:43.951Z,27.77
2022-10-31T05:36:31.254Z,33.25
2022-10-31T05:39:02.389Z,29.70
2022-10-31T05:41:33.547Z,27.45
2022-10-31T05:44:10.625Z,25.88
2022-10-31T05:49:24.126Z,30.08
2022-10-31T05:52:07.338Z,19.70
2022-10-31T05:54:38.483Z,26.73
2022-10-31T05:57:09.054Z,22.95
2022-10-31T05:59:38.550Z,28.60
2022-10-31T06:02:08.085Z,24.98
2022-10-31T06:04:55.414Z,25.82
2022-10-31T06:07:24.933Z,26.07
2022-10-31T06:09:55.606Z,26.00
2022-10-31T06:12:25.497Z,23.32
2022-10-31T06:15:10.154Z,22.67
2022-10-31T06:17:39.607Z,26.97
2022-10-31T06:20:13.916Z,26.97
2022-10-31T06:22:45.122Z,21.95
2022-10-31T06:25:15.772Z,23.00
2022-10-31T06:27:46.913Z,18.67
2022-10-31T06:30:18.366Z,23.10
2022-10-31T06:32:48.358Z,20.30
2022-10-31T06:35:18.102Z,21.33
2022-10-31T06:37:55.953Z,22.07
2022-10-31T06:40:33.087Z,26.40
2022-10-31T06:43:20.285Z,20.45
2022-10-31T06:45:50.175Z,25.52
2022-10-31T06:48:30.549Z,28.42
2022-10-31T06:51:16.850Z,18.87
2022-10-31T06:53:46.325Z,19.37
2022-10-31T06:56:16.203Z,20.62
2022-10-31T06:58:47.489Z,24.75
2022-10-31T07:01:17.610Z,28.47
2022-10-31T07:03:48.232Z,27.98
2022-10-31T07:06:17.794Z,22.02
2022-10-31T07:08:47.317Z,22.48
2022-10-31T07:11:16.894Z,19.42
2022-10-31T07:13:46.662Z,22.15
2022-10-31T07:16:17.834Z,19.52
2022-10-31T07:18:48.333Z,25.80
2022-10-31T07:21:17.839Z,23.22
2022-10-31T07:23:50.927Z,16.12
2022-10-31T07:26:38.230Z,22.83
2022-10-31T07:29:07.865Z,20.70
2022-10-31T07:31:37.373Z,22.60
2022-10-31T07:34:08.562Z,25.70
2022-10-31T07:36:39.723Z,28.23
2022-10-31T07:39:09.319Z,26.87
2022-10-31T07:41:38.915Z,22.07
2022-10-31T07:44:08.649Z,26.15
2022-10-31T07:46:55.760Z,26.73
2022-10-31T07:49:29.602Z,28.45
2022-10-31T07:52:09.601Z,32.28
2022-10-31T07:54:49.762Z,26.23
2022-10-31T07:57:22.702Z,23.12
2022-10-31T07:59:52.247Z,25.15
2022-10-31T08:02:22.268Z,31.95
2022-10-31T08:04:55.934Z,26.00
2022-10-31T08:07:42.489Z,25.20
2022-10-31T08:10:14.715Z,30.05
2022-10-31T08:12:44.625Z,30.03
2022-10-31T08:15:16.074Z,23.00
2022-10-31T08:17:46.169Z,23.00
2022-10-31T08:20:17.638Z,25.47
2022-10-31T08:23:05.930Z,31.20
2022-10-31T08:25:39.491Z,30.92
2022-10-31T08:28:11.713Z,27.82
2022-10-31T08:30:43.660Z,27.10
2022-10-31T08:33:27.226Z,23.62
2022-10-31T08:36:04.109Z,25.90
2022-10-31T08:38:44.225Z,22.22
2022-10-31T08:41:16.876Z,22.90
2022-10-31T08:43:46.437Z,25.62
2022-10-31T08:46:18.898Z,31.33
2022-10-31T08:48:50.913Z,21.25
2022-10-31T08:51:21.601Z,22.13
2022-10-31T08:53:52.738Z,25.20
2022-10-31T08:56:26.932Z,20.20
2022-10-31T08:58:56.560Z,23.98
2022-10-31T09:01:44.383Z,24.15
2022-10-31T09:07:07.976Z,17.85
2022-10-31T09:09:16.334Z,18.60
2022-10-31T09:11:45.826Z,17.55
2022-10-31T09:16:59.469Z,21.73
2022-10-31T09:19:30.606Z,26.23
2022-10-31T09:22:00.797Z,22.62
2022-10-31T09:24:30.329Z,28.45
2022-10-31T09:27:01.483Z,26.93
2022-10-31T09:29:30.997Z,23.52
2022-10-31T09:32:02.203Z,29.67
2022-10-31T09:34:33.397Z,21.97
2022-10-31T09:39:16.589Z,14.38
2022-10-31T09:42:05.399Z,22.10
2022-10-31T09:44:47.490Z,25.50
2022-10-31T09:47:56.027Z,17.07
2022-10-31T09:50:39.073Z,17.35
2022-10-31T09:53:25.231Z,21.05
2022-10-31T09:55:56.464Z,19.98
2022-10-31T09:58:32.115Z,21.27
2022-10-31T10:01:05.590Z,17.12
2022-10-31T10:03:46.975Z,18.32
2022-10-31T10:06:27.342Z,24.18
2022-10-31T10:09:14.808Z,23.65
2022-10-31T10:12:14.841Z,18.05
2022-10-31T10:14:59.151Z,18.80
2022-10-31T10:18:00.392Z,16.65
2022-10-31T10:20:38.903Z,17.82
2022-10-31T10:23:11.441Z,18.10
2022-10-31T10:25:43.626Z,18.60
2022-10-31T10:28:22.173Z,26.55
2022-10-31T10:30:54.675Z,23.32
2022-10-31T10:33:39.422Z,16.27
2022-10-31T10:36:24.000Z,16.90
2022-10-31T10:38:59.410Z,15.65
2022-10-31T10:41:35.043Z,19.07
2022-10-31T10:44:08.013Z,16.02
2022-10-31T10:49:44.465Z,14.53
2022-10-31T10:52:40.928Z,16.83
2022-10-31T10:57:32.897Z,16.20
2022-10-31T11:02:35.701Z,27.37
2022-10-31T11:05:07.848Z,15.48
2022-10-31T11:07:42.198Z,18.90
2022-10-31T11:10:17.676Z,21.90
2022-10-31T11:12:49.866Z,16.90
2022-10-31T11:15:22.389Z,16.60
2022-10-31T11:17:55.278Z,12.82
2022-10-31T11:22:57.944Z,16.40
2022-10-31T11:28:05.769Z,20.43
2022-10-31T11:30:47.023Z,21.52
2022-10-31T11:33:25.361Z,16.32
2022-10-31T11:35:58.454Z,15.75
2022-10-31T11:38:43.421Z,20.60
2022-10-31T11:41:21.630Z,18.80
2022-10-31T11:44:05.927Z,12.88
2022-10-31T11:46:44.518Z,14.63
2022-10-31T11:49:17.070Z,18.73
2022-10-31T11:51:55.621Z,20.35
2022-10-31T11:54:31.388Z,15.30
2022-10-31T11:57:01.665Z,18.15
2022-10-31T11:59:34.056Z,18.02
2022-10-31T12:02:04.537Z,17.32
2022-10-31T12:04:47.288Z,18.20
2022-10-31T12:07:16.777Z,16.67
2022-10-31T12:09:46.205Z,19.07
2022-10-31T12:12:21.726Z,17.45
2022-10-31T12:14:59.957Z,16.10
2022-10-31T12:17:35.274Z,19.37
2022-10-31T12:20:36.435Z,15.18
2022-10-31T12:23:09.016Z,19.07
2022-10-31T12:28:29.560Z,22.77
2022-10-31T12:31:11.904Z,22.04
2022-10-31T12:33:59.568Z,20.50
2022-10-31T12:36:51.433Z,16.48
2022-10-31T12:39:35.810Z,19.07
2022-10-31T12:42:08.337Z,17.12
2022-10-31T12:44:40.907Z,17.73
2022-10-31T12:50:24.306Z,17.70
2022-10-31T12:53:11.810Z,16.90
2022-10-31T12:55:46.975Z,19.73
2022-10-31T12:58:31.172Z,24.67
2022-10-31T13:01:13.006Z,19.95
2022-10-31T13:03:57.648Z,16.97
2022-10-31T13:06:32.797Z,16.40
2022-10-31T13:09:05.534Z,19.23
2022-10-31T13:11:38.111Z,15.43
2022-10-31T13:14:19.654Z,18.87
2022-10-31T13:16:51.527Z,18.05
2022-10-31T13:22:01.798Z,18.40
2022-10-31T13:24:40.270Z,16.57
2022-10-31T13:27:18.794Z,16.40
2022-10-31T13:29:57.307Z,40.98
2022-10-31T13:32:29.655Z,21.70
2022-10-31T13:35:01.658Z,16.20
2022-10-31T13:37:37.555Z,17.10
2022-10-31T13:40:22.589Z,16.10
2022-10-31T13:42:58.064Z,19.25
2022-10-31T13:45:30.717Z,17.77
2022-10-31T13:48:03.760Z,19.30
2022-10-31T13:50:35.785Z,19.75
2022-10-31T13:53:20.241Z,20.72
2022-10-31T13:55:52.770Z,16.20
2022-10-31T13:58:25.302Z,15.15
2022-10-31T14:01:15.749Z,16.42
2022-10-31T14:04:06.051Z,19.12
2022-10-31T14:06:20.807Z,17.82
2022-10-31T14:08:54.458Z,19.62
2022-10-31T14:11:34.400Z,16.67
2022-10-31T14:14:02.437Z,18.77
2022-10-31T14:16:36.382Z,15.90
2022-10-31T14:19:11.892Z,16.20
2022-10-31T14:21:44.451Z,22.30
2022-10-31T14:24:28.944Z,20.97
2022-10-31T14:27:04.222Z,23.50
2022-10-31T14:29:35.799Z,22.15
2022-10-31T14:32:17.800Z,20.67
2022-10-31T14:34:55.814Z,18.63
2022-10-31T14:38:02.463Z,20.50
2022-10-31T14:40:39.204Z,19.43
2022-10-31T14:43:14.549Z,19.98
2022-10-31T14:45:59.368Z,21.40
2022-10-31T14:48:53.806Z,15.55
2022-10-31T14:51:26.361Z,27.00
2022-10-31T14:53:58.807Z,16.52
2022-10-31T14:56:37.724Z,22.02
2022-10-31T14:59:10.263Z,18.00
2022-10-31T15:01:41.690Z,19.98
2022-10-31T15:04:29.447Z,15.67
2022-10-31T15:06:48.349Z,19.20
2022-10-31T15:09:26.860Z,20.10
2022-10-31T15:11:56.826Z,22.07
2022-10-31T15:14:32.230Z,27.02
2022-10-31T15:17:05.906Z,25.65
2022-10-31T15:19:37.726Z,23.00
2022-10-31T15:24:40.499Z,19.67
2022-10-31T15:29:43.198Z,15.38
2022-10-31T15:32:24.231Z,17.87
2022-10-31T15:34:56.706Z,19.23
2022-10-31T15:37:30.621Z,17.17
2022-10-31T15:40:03.215Z,18.20
2022-10-31T15:42:38.614Z,19.40
2022-10-31T15:45:17.328Z,20.55
2022-10-31T15:48:08.116Z,14.28
2022-10-31T15:50:44.982Z,19.52
2022-10-31T15:53:23.440Z,21.40
2022-10-31T15:55:55.970Z,18.77
2022-10-31T16:01:05.195Z,18.25
2022-10-31T16:03:36.580Z,19.75
2022-10-31T16:06:07.710Z,22.80
2022-10-31T16:08:39.784Z,15.32
2022-10-31T16:11:15.073Z,19.50
2022-10-31T16:13:56.620Z,21.90
2022-10-31T16:18:59.490Z,20.10
2022-10-31T16:21:32.123Z,23.35
2022-10-31T16:24:06.168Z,19.12
2022-10-31T16:26:36.662Z,19.98
2022-10-31T16:29:06.236Z,25.17
2022-10-31T16:31:41.838Z,23.70
2022-10-31T16:34:25.210Z,19.25
2022-10-31T16:36:51.902Z,18.97
2022-10-31T16:39:21.421Z,24.60
2022-10-31T16:41:53.992Z,18.77
2022-10-31T16:44:28.659Z,17.23
2022-10-31T16:47:10.196Z,15.38
2022-10-31T16:49:39.771Z,23.25
2022-10-31T16:52:09.210Z,15.60
2022-10-31T16:54:40.518Z,20.52
2022-10-31T16:57:13.022Z,16.95
2022-10-31T16:59:43.048Z,19.90
2022-10-31T17:02:15.794Z,20.37
2022-10-31T17:04:47.581Z,20.12
2022-10-31T17:07:17.123Z,19.77
2022-10-31T17:09:46.618Z,16.10
2022-10-31T17:12:19.114Z,20.17
2022-10-31T17:17:18.707Z,18.65
2022-10-31T17:19:48.202Z,22.82
2022-10-31T17:22:17.836Z,18.00
2022-10-31T17:24:47.334Z,16.43
2022-10-31T17:27:16.774Z,24.35
2022-10-31T17:29:46.298Z,23.55
2022-10-31T17:32:15.780Z,22.95
2022-10-31T17:34:45.215Z,21.57
2022-10-31T17:37:14.679Z,19.80
2022-10-31T17:39:44.145Z,16.27
2022-10-31T17:42:13.767Z,22.82
2022-10-31T17:44:43.228Z,21.87
2022-10-31T17:47:12.672Z,19.20
2022-10-31T17:49:42.505Z,19.27
2022-10-31T17:52:11.953Z,18.80
2022-10-31T17:54:41.382Z,23.17
2022-10-31T17:57:10.817Z,18.95
2022-10-31T17:59:40.270Z,21.15
2022-10-31T18:02:11.959Z,24.37
2022-10-31T18:04:42.320Z,23.90
2022-10-31T18:07:11.828Z,23.10
2022-10-31T18:09:41.258Z,15.97
2022-10-31T18:12:10.715Z,18.73
2022-10-31T18:14:42.508Z,19.95
2022-10-31T18:17:11.266Z,20.35
2022-10-31T18:19:40.760Z,21.80
2022-10-31T18:22:10.210Z,19.10
2022-10-31T18:24:39.882Z,24.43
2022-10-31T18:27:09.387Z,23.73
2022-10-31T18:29:38.816Z,26.00
2022-10-31T18:32:09.771Z,26.50
2022-10-31T18:34:39.372Z,30.20
2022-10-31T18:37:08.789Z,22.55
2022-10-31T18:39:38.259Z,24.87
2022-10-31T18:42:07.757Z,25.27
2022-10-31T18:44:38.315Z,23.70
2022-10-31T18:47:07.742Z,26.20
2022-10-31T18:49:37.354Z,30.05
2022-10-31T18:52:06.849Z,23.27
2022-10-31T18:54:36.292Z,20.65
2022-10-31T18:57:05.803Z,20.92
2022-10-31T18:59:35.347Z,21.82
2022-10-31T19:02:04.932Z,24.60
2022-10-31T19:04:35.310Z,23.07
2022-10-31T19:07:04.804Z,28.83
2022-10-31T19:09:38.622Z,22.98
2022-10-31T19:12:08.173Z,24.63
2022-10-31T19:14:37.619Z,28.52
2022-10-31T19:17:07.165Z,29.35
2022-10-31T19:19:38.288Z,35.13
2022-10-31T19:22:07.826Z,29.45
2022-10-31T19:24:37.727Z,27.87
2022-10-31T19:29:35.870Z,25.52
2022-10-31T19:32:05.511Z,27.00
2022-10-31T19:34:35.090Z,26.57
2022-10-31T19:37:04.664Z,25.08
2022-10-31T19:39:34.085Z,22.52
2022-10-31T19:42:03.537Z,31.77
2022-10-31T19:44:35.554Z,34.45
2022-10-31T19:47:05.093Z,32.48
2022-10-31T19:49:34.513Z,27.93
2022-10-31T19:52:04.126Z,26.40
2022-10-31T19:54:33.540Z,26.00
2022-10-31T19:57:02.980Z,26.70
2022-10-31T19:59:38.157Z,30.17
2022-10-31T20:02:03.602Z,24.67
2022-10-31T20:04:33.085Z,22.48
2022-10-31T20:07:02.994Z,27.30
2022-10-31T20:09:32.446Z,31.33
2022-10-31T20:12:02.091Z,28.30
2022-10-31T20:14:31.665Z,31.95
2022-10-31T20:17:01.114Z,29.65
2022-10-31T20:19:30.565Z,29.10
2022-10-31T20:22:01.010Z,25.52
2022-10-31T20:24:33.174Z,27.25
2022-10-31T20:27:04.328Z,29.37
2022-10-31T20:29:33.814Z,32.05
2022-10-31T20:32:03.259Z,33.50
2022-10-31T20:34:32.684Z,28.85
2022-10-31T20:37:02.167Z,28.60
2022-10-31T20:39:32.259Z,30.45
2022-10-31T20:42:01.699Z,33.48
2022-10-31T20:44:32.339Z,33.60
2022-10-31T20:47:01.765Z,28.02
2022-10-31T20:49:32.296Z,27.13
2022-10-31T20:52:01.721Z,25.77
2022-10-31T20:54:31.157Z,30.37
2022-10-31T20:57:01.117Z,28.40
2022-10-31T20:59:30.551Z,21.45
2022-10-31T21:02:00.192Z,24.95
2022-10-31T21:04:30.680Z,22.30
2022-10-31T21:07:00.109Z,27.22
2022-10-31T21:09:29.555Z,29.90
2022-10-31T21:11:59.051Z,31.30
2022-10-31T21:14:28.505Z,24.85
2022-10-31T21:16:57.948Z,29.02
2022-10-31T21:19:27.951Z,31.82
2022-10-31T21:21:57.578Z,24.37
2022-10-31T21:24:28.666Z,28.62
2022-10-31T21:26:58.161Z,28.73
2022-10-31T21:29:27.687Z,29.92
2022-10-31T21:31:57.186Z,29.85
2022-10-31T21:34:26.670Z,25.43
2022-10-31T21:36:56.106Z,24.80
2022-10-31T21:39:25.625Z,28.70
2022-10-31T21:41:55.064Z,28.40
2022-10-31T21:44:24.502Z,28.12
2022-10-31T21:46:53.964Z,24.55
2022-10-31T21:49:23.404Z,26.23
2022-10-31T21:51:53.341Z,31.80
2022-10-31T21:54:30.632Z,23.10
2022-10-31T21:57:02.066Z,25.90
2022-10-31T21:59:31.992Z,28.65
2022-10-31T22:02:01.725Z,25.08
2022-10-31T22:04:31.302Z,27.87
2022-10-31T22:07:00.769Z,29.05
2022-10-31T22:09:30.348Z,33.23
2022-10-31T22:12:01.834Z,27.90
2022-10-31T22:14:31.350Z,28.50
2022-10-31T22:17:00.925Z,29.87
2022-10-31T22:19:30.405Z,29.95
2022-10-31T22:21:59.974Z,21.12
2022-10-31T22:24:29.578Z,28.52
2022-10-31T22:26:59.094Z,29.12
2022-10-31T22:29:29.105Z,30.90
2022-10-31T22:31:59.598Z,26.68
2022-10-31T22:34:29.736Z,32.03
2022-10-31T22:36:59.216Z,27.35
2022-10-31T22:39:28.737Z,32.60
2022-10-31T22:41:58.220Z,25.32
2022-10-31T22:44:27.658Z,31.95
2022-10-31T22:46:57.973Z,35.88
2022-10-31T22:49:27.983Z,31.57
2022-10-31T22:51:59.084Z,29.92
2022-10-31T22:54:28.655Z,28.87
2022-10-31T22:56:58.207Z,29.27
2022-10-31T22:59:27.704Z,21.35
2022-10-31T23:01:57.275Z,30.23
2022-10-31T23:04:27.431Z,27.58
2022-10-31T23:06:56.890Z,27.27
2022-10-31T23:09:26.312Z,24.95
2022-10-31T23:11:57.420Z,30.82
2022-10-31T23:14:26.854Z,28.17
2022-10-31T23:16:58.108Z,18.90
2022-10-31T23:19:29.962Z,17.95
2022-10-31T23:22:05.431Z,15.50
2022-10-31T23:24:40.685Z,15.98
2022-10-31T23:27:15.937Z,15.08
2022-10-31T23:29:48.102Z,15.03
2022-10-31T23:32:38.237Z,23.33
2022-10-31T23:35:10.076Z,23.92
2022-10-31T23:37:40.650Z,22.83
2022-10-31T23:40:10.457Z,14.43
2022-10-31T23:42:40.066Z,12.65
2022-10-31T23:45:09.859Z,10.13
2022-10-31T23:47:43.220Z,12.03
2022-10-31T23:50:10.730Z,11.80
2022-10-31T23:52:40.236Z,8.68
2022-10-31T23:55:09.781Z,12.70
2022-10-31T23:57:40.401Z,9.38
